Time;durP1;ratioP1;P1;durP2;ratioP2;P2;SDS_P1;SDS_P2;PMS_P1;PMS_P2;Temp;Humidity;BMP_temperature;BMP_pressure;BME280_temperature;BME280_humidity;BME280_pressure;Samples;Min_cycle;Max_cycle;Signal;HPM_P1;HPM_P2
2023/10/23 00:00:49;;;;;;;29.45;9.70;;;;;;;16.71;61.08;97687.13;10411434;28;20496;-49
2023/10/23 00:05:48;;;;;;;27.42;9.43;;;;;;;16.64;61.75;97699.53;10412029;28;20127;-48
2023/10/23 00:10:47;;;;;;;;;;;;;;;16.67;61.75;97688.97;10412380;28;20032;-49
2023/10/23 00:15:46;;;;;;;32.87;9.00;;;;;;;16.57;62.33;97668.31;10411835;28;19920;-48
2023/10/23 00:20:45;;;;;;;32.03;9.60;;;;;;;16.60;62.07;97661.22;10393520;28;20084;-49
2023/10/23 00:25:44;;;;;;;;;;;;;;;16.72;62.30;97678.34;10411713;28;20117;-49
2023/10/23 00:30:44;;;;;;;38.92;9.10;;;;;;;16.75;62.52;97690.50;10410890;28;19947;-49
2023/10/23 00:35:43;;;;;;;30.38;9.00;;;;;;;16.68;63.22;97695.09;10411257;28;20060;-50
2023/10/23 00:40:41;;;;;;;;;;;;;;;16.64;63.44;97682.97;10411286;28;20111;-49
2023/10/23 00:45:50;;;;;;;31.23;9.27;;;;;;;16.41;63.41;97657.38;10410282;28;19920;-48
2023/10/23 00:50:50;;;;;;;32.40;11.33;;;;;;;16.39;63.72;97688.81;10410127;28;20056;-48
2023/10/23 00:55:51;;;;;;;31.63;10.15;;;;;;;16.35;63.68;97678.47;10409993;28;20124;-50
2023/10/23 01:00:51;;;;;;;25.50;9.35;;;;;;;16.37;63.74;97687.13;10408905;28;20071;-51
2023/10/23 01:05:50;;;;;;;29.23;9.32;;;;;;;16.37;63.16;97692.38;10410162;28;20484;-49
2023/10/23 01:10:49;;;;;;;;;;;;;;;16.40;63.24;97687.94;10409738;28;20491;-49
2023/10/23 01:15:48;;;;;;;32.70;10.17;;;;;;;16.41;63.62;97694.03;10409483;28;20013;-50
2023/10/23 01:20:47;;;;;;;;;;;;;;;16.42;63.67;97707.09;10409224;28;20068;-51
2023/10/23 01:25:46;;;;;;;29.35;9.43;;;;;;;16.44;63.90;97709.66;10408840;28;20101;-51
2023/10/23 01:30:45;;;;;;;;;;;;;;;16.43;63.77;97708.81;10409146;28;20119;-49
2023/10/23 01:35:44;;;;;;;31.50;9.55;;;;;;;16.48;63.38;97704.31;10367249;28;19917;-49
2023/10/23 01:40:42;;;;;;;;;;;;;;;16.24;64.85;97707.56;10366784;28;20064;-49
2023/10/23 01:45:41;;;;;;;28.40;10.90;;;;;;;16.27;64.24;97695.22;10367522;28;20032;-51
2023/10/23 01:50:40;;;;;;;;;;;;;;;16.37;64.13;97695.00;10367433;28;20028;-50
2023/10/23 01:55:39;;;;;;;27.35;9.60;;;;;;;16.40;63.97;97692.31;10366174;28;19951;-51
2023/10/23 02:00:38;;;;;;;;;;;;;;;16.34;64.31;97688.09;10367042;28;20139;-49
2023/10/23 02:05:37;;;;;;;35.28;10.35;;;;;;;16.04;64.57;97627.75;10366724;28;19968;-48
2023/10/23 02:10:35;;;;;;;;;;;;;;;16.35;64.60;97694.16;10366545;28;20043;-51
2023/10/23 02:15:34;;;;;;;25.98;9.52;;;;;;;16.36;64.61;97698.53;10366106;28;19921;-49
2023/10/23 02:20:33;;;;;;;;;;;;;;;16.32;65.47;97697.72;10366372;28;20037;-51
2023/10/23 02:25:32;;;;;;;31.93;10.50;;;;;;;16.39;64.85;97701.91;10365248;28;20458;-49
2023/10/23 02:30:31;;;;;;;;;;;;;;;16.42;64.77;97704.47;10365592;28;20539;-48
2023/10/23 02:35:34;;;;;;;27.05;8.93;;;;;;;16.44;64.33;97700.06;10364528;28;20311;-51
2023/10/23 02:40:33;;;;;;;26.05;10.13;;;;;;;16.48;64.59;97706.91;10364898;28;20140;-52
2023/10/23 02:45:32;;;;;;;;;;;;;;;16.57;64.54;97710.22;10366002;28;20033;-49
2023/10/23 02:50:31;;;;;;;28.63;10.27;;;;;;;16.56;64.68;97698.00;10364906;28;19952;-50
2023/10/23 02:55:30;;;;;;;;;;;;;;;16.40;65.43;97713.28;10364649;28;20124;-50
2023/10/23 03:00:29;;;;;;;26.80;8.80;;;;;;;16.00;66.36;97714.25;10373562;28;19985;-51
2023/10/23 03:05:28;;;;;;;;;;;;;;;15.63;67.42;97718.50;10406332;28;20028;-51
2023/10/23 03:10:26;;;;;;;29.77;10.37;;;;;;;15.57;67.15;97709.91;10405062;28;20313;-49
2023/10/23 03:15:25;;;;;;;;;;;;;;;15.66;66.41;97710.56;10405748;28;20024;-49
2023/10/23 03:20:24;;;;;;;27.15;10.13;;;;;;;15.81;66.38;97712.03;10405375;28;19944;-49
2023/10/23 03:25:24;;;;;;;;;;;;;;;15.87;65.82;97708.41;10405715;28;20041;-51
2023/10/23 03:30:23;;;;;;;30.42;8.98;;;;;;;15.94;66.07;97704.75;10403946;28;20390;-50
2023/10/23 03:35:22;;;;;;;23.90;8.93;;;;;;;16.01;65.96;97706.34;10406046;28;20131;-50
2023/10/23 03:40:21;;;;;;;;;;;;;;;16.03;66.13;97708.91;10405405;28;20032;-49
2023/10/23 03:45:20;;;;;;;22.15;8.88;;;;;;;16.11;65.88;97706.13;10404787;28;19920;-51
2023/10/23 03:50:19;;;;;;;;;;;;;;;16.10;65.80;97697.41;10405441;28;20123;-51
2023/10/23 03:55:18;;;;;;;31.25;10.25;;;;;;;16.08;65.73;97704.44;10404368;28;19920;-51
2023/10/23 04:00:17;;;;;;;;;;;;;;;16.05;65.98;97708.00;10403565;28;20036;-51
2023/10/23 04:05:15;;;;;;;30.25;10.18;;;;;;;16.13;65.72;97699.94;10404671;28;19963;-49
2023/10/23 04:10:14;;;;;;;;;;;;;;;16.19;65.87;97709.44;10404797;28;20043;-47
2023/10/23 04:15:13;;;;;;;25.25;9.57;;;;;;;15.87;65.89;97640.38;10403789;28;20012;-52
2023/10/23 04:20:12;;;;;;;;;;;;;;;16.25;65.79;97702.25;10409839;28;20028;-48
2023/10/23 04:25:11;;;;;;;31.52;9.95;;;;;;;16.22;65.95;97704.09;10410287;28;20310;-51
2023/10/23 04:30:10;;;;;;;;;;;;;;;16.23;65.95;97711.94;10382338;28;20045;-48
2023/10/23 04:35:09;;;;;;;31.90;10.88;;;;;;;16.18;65.72;97715.53;10369786;28;19955;-51
2023/10/23 04:40:08;;;;;;;;;;;;;;;16.13;65.74;97718.28;10369450;28;20049;-51
2023/10/23 04:45:08;;;;;;;58.72;24.38;;;;;;;16.02;66.49;97731.63;10367520;28;19913;-50
2023/10/23 04:50:07;;;;;;;36.80;16.30;;;;;;;15.93;66.41;97723.09;10369367;28;20061;-48
2023/10/23 04:55:06;;;;;;;35.80;16.50;;;;;;;15.92;66.71;97727.47;10378524;28;20064;-49
2023/10/23 05:00:06;;;;;;;40.22;17.58;;;;;;;15.89;66.74;97732.78;10380312;28;20128;-48
2023/10/23 05:05:06;;;;;;;39.90;15.80;;;;;;;15.94;66.91;97732.69;10409784;28;20119;-51
2023/10/23 05:10:09;;;;;;;38.22;13.65;;;;;;;16.01;66.99;97740.34;10402754;28;20057;-50
2023/10/23 05:15:08;;;;;;;37.67;11.05;;;;;;;15.95;66.50;97753.59;10388638;28;20128;-52
2023/10/23 05:20:08;;;;;;;34.90;12.75;;;;;;;15.95;67.22;97752.72;10410821;28;20066;-49
2023/10/23 05:25:10;;;;;;;32.40;12.27;;;;;;;16.16;66.62;97756.59;10396814;28;20492;-51
2023/10/23 05:30:10;;;;;;;38.47;12.15;;;;;;;16.19;66.92;97751.31;10390563;28;20060;-51
2023/10/23 05:35:09;;;;;;;50.38;15.57;;;;;;;16.42;66.45;97749.00;10400015;28;20132;-52
2023/10/23 05:40:07;;;;;;;;;;;;;;;16.74;66.02;97770.91;10398435;28;20037;-51
2023/10/23 05:45:07;;;;;;;47.20;12.33;;;;;;;16.89;65.81;97780.19;10373575;28;20712;-52
2023/10/23 05:50:06;;;;;;;36.05;14.98;;;;;;;17.06;65.07;97777.97;10363067;28;20064;-49
2023/10/23 05:55:08;;;;;;;54.45;22.23;;;;;;;17.08;65.08;97775.31;10374055;28;20141;-48
2023/10/23 06:00:10;;;;;;;66.32;34.53;;;;;;;17.23;64.46;97779.25;10381223;28;20112;-51
2023/10/23 06:05:09;;;;;;;65.68;34.95;;;;;;;17.32;64.10;97790.34;10373319;28;20064;-50
2023/10/23 06:10:08;;;;;;;56.22;26.98;;;;;;;17.14;63.40;97731.44;10373102;28;20029;-49
2023/10/23 06:15:10;;;;;;;48.15;18.23;;;;;;;17.73;62.80;97790.97;10363720;28;20056;-49
2023/10/23 06:20:34;;;;;;;44.13;16.17;;;;;;;17.88;62.46;97810.69;10405852;28;20526;-49
2023/10/23 06:25:35;;;;;;;47.83;17.33;;;;;;;18.01;61.85;97803.31;10394243;28;20076;-47
2023/10/23 06:30:45;;;;;;;57.13;19.70;;;;;;;18.29;61.18;97820.81;10387685;28;20056;-48
2023/10/23 06:35:58;;;;;;;33.53;12.43;;;;;;;18.55;60.10;97818.25;10384402;28;20473;-50
2023/10/23 06:41:07;;;;;;;;;;;;;;;18.87;59.90;97821.63;10373070;28;20067;-49
2023/10/23 06:46:06;;;;;;;32.92;11.10;;;;;;;19.15;58.99;97818.06;10372264;28;20382;-51
2023/10/23 06:51:05;;;;;;;34.00;11.82;;;;;;;19.41;58.50;97825.03;10372734;28;20060;-49
2023/10/23 06:56:04;;;;;;;31.70;12.13;;;;;;;19.54;56.80;97826.31;10394027;28;20127;-51
2023/10/23 07:01:09;;;;;;;45.55;14.70;;;;;;;19.57;56.87;97822.75;10405495;28;20138;-47
2023/10/23 07:06:08;;;;;;;39.88;14.32;;;;;;;19.68;56.31;97831.13;10378788;28;20714;-48
2023/10/23 07:11:18;;;;;;;36.80;14.18;;;;;;;19.78;56.24;97829.84;10413301;28;20494;-51
2023/10/23 07:16:18;;;;;;;38.17;14.90;;;;;;;19.83;55.91;97830.53;10412413;28;20080;-49
2023/10/23 07:21:17;;;;;;;44.67;14.75;;;;;;;19.69;55.84;97840.72;10387740;28;20063;-51
2023/10/23 07:26:16;;;;;;;36.50;13.55;;;;;;;19.78;56.54;97839.53;10379425;28;20047;-51
2023/10/23 07:31:16;;;;;;;38.70;13.18;;;;;;;19.96;56.10;97832.75;10413515;28;20064;-50
2023/10/23 07:36:15;;;;;;;32.65;11.85;;;;;;;19.54;55.13;97720.19;10400845;28;20069;-52
2023/10/23 07:41:14;;;;;;;36.60;12.25;;;;;;;20.47;55.45;97834.31;10372115;28;20072;-52
2023/10/23 07:46:13;;;;;;;38.28;12.80;;;;;;;20.80;54.04;97833.88;10372452;28;20048;-51
2023/10/23 07:57:08;;;;;;;30.33;10.38;;;;;;;20.95;53.16;97842.94;10399200;28;20476;-52
2023/10/23 08:02:08;;;;;;;46.45;9.65;;;;;;;20.91;53.11;97842.19;10384265;28;20063;-51
